KDLO

Delano Municipal Airport

Delano, California, USA
METAR KDLO 181635Z AUTO 00000KT 10SM CLR 01/M06 A3023 RMK AO2 T00051057
Observed Flight Rules
Dec-18 @ 16:35 UTC (9 minutes ago) Visual Flight Rules
Wind Visibility Clouds
Calm 10 miles
  • Clear skies
Temperatures Readings
Current 1°C / 34°F
Dewpoint -6°C / 21°F
Humidity 60%
Altimeter 30.23" Hg
Pressure 1024 hPa
Elevation 96
METAR KDLO 181635Z AUTO 00000KT 10SM CLR 01/M06 A3023 RMK AO2 T00051057
Observed Flight Rules
Dec-18 @ 16:35 UTC
(9 minutes ago)
VFR
Wind Visibility
Calm 10 miles
Clouds
  • Clear skies
Temperature Dewpoint
1°C / 34°F -6°C / 21°F
Humidity Altimeter Pressure
60% 30.23" Hg 1024 hPa